Time;durP1;ratioP1;P1;durP2;ratioP2;P2;SDS_P1;SDS_P2;PMS_P1;PMS_P2;Temp;Humidity;BMP_temperature;BMP_pressure;BME280_temperature;BME280_humidity;BME280_pressure;Samples;Min_cycle;Max_cycle;Signal;HPM_P1;HPM_P2
2022/03/14 00:00:38;;;;;;;9.45;6.18;;;;;;;9.87;35.95;100577.69;4985722;28;20042;-70
2022/03/14 00:03:04;;;;;;;9.38;6.85;;;;;;;9.73;36.54;100588.72;4989854;28;20038;-70
2022/03/14 00:05:31;;;;;;;9.98;6.85;;;;;;;9.57;37.09;100592.78;4986501;28;20039;-71
2022/03/14 00:07:58;;;;;;;12.05;7.25;;;;;;;9.43;37.47;100598.53;4990529;28;20037;-71
2022/03/14 00:10:23;;;;;;;10.40;7.07;;;;;;;9.30;37.63;100603.28;4992152;28;20453;-69
2022/03/14 00:12:49;;;;;;;13.00;7.78;;;;;;;9.16;38.35;100619.56;4987480;28;20041;-71
2022/03/14 00:15:15;;;;;;;12.23;7.82;;;;;;;9.00;38.47;100623.56;4988742;28;20043;-71
2022/03/14 00:17:43;;;;;;;10.02;6.28;;;;;;;8.86;38.20;100630.09;4989523;28;20034;-70
2022/03/14 00:20:12;;;;;;;10.43;6.95;;;;;;;8.70;38.45;100638.56;4988414;28;20081;-70
2022/03/14 00:22:38;;;;;;;8.25;5.75;;;;;;;8.55;38.38;100657.53;4992284;28;20434;-71
2022/03/14 00:25:08;;;;;;;8.55;5.72;;;;;;;8.45;38.51;100665.41;4987837;28;20483;-71
2022/03/14 00:27:37;;;;;;;13.45;9.05;;;;;;;8.36;39.55;100677.53;4983851;28;20031;-70
2022/03/14 00:30:08;;;;;;;14.15;9.98;;;;;;;8.29;39.99;100687.81;4988831;28;20030;-70
2022/03/14 00:32:34;;;;;;;18.90;12.07;;;;;;;8.30;40.47;100694.72;4986486;28;20130;-71
2022/03/14 00:35:00;;;;;;;17.23;11.75;;;;;;;8.26;41.52;100713.56;4988426;28;20117;-71
2022/03/14 00:37:26;;;;;;;15.82;10.40;;;;;;;8.22;41.70;100720.06;4988063;28;20125;-71
2022/03/14 00:39:53;;;;;;;15.85;9.82;;;;;;;8.17;41.74;100715.19;4990686;28;20035;-70
2022/03/14 00:42:21;;;;;;;13.00;8.73;;;;;;;8.14;41.48;100717.25;4986691;28;20153;-71
2022/03/14 00:44:47;;;;;;;13.05;8.70;;;;;;;8.07;41.42;100717.78;5003338;28;20034;-70
2022/03/14 00:47:12;;;;;;;11.68;8.50;;;;;;;8.02;41.63;100719.97;4994123;28;20045;-71
2022/03/14 00:49:37;;;;;;;13.50;8.63;;;;;;;7.97;41.65;100719.53;4991065;28;20038;-71
2022/03/14 00:52:03;;;;;;;10.52;7.38;;;;;;;7.88;41.41;100729.03;4985854;28;20093;-71
2022/03/14 00:54:28;;;;;;;10.48;6.88;;;;;;;7.82;41.32;100726.94;4994249;28;20040;-70
2022/03/14 00:56:53;;;;;;;12.25;8.27;;;;;;;7.82;41.70;100744.53;4994980;28;20046;-71
2022/03/14 00:59:20;;;;;;;11.80;7.75;;;;;;;7.81;41.66;100769.16;4988847;28;20058;-72
2022/03/14 01:01:45;;;;;;;9.82;6.55;;;;;;;7.78;41.33;100774.69;4988301;28;20311;-72
2022/03/14 01:04:10;;;;;;;10.40;6.68;;;;;;;7.72;41.43;100778.66;4990663;28;20035;-72
2022/03/14 01:06:36;;;;;;;10.48;6.85;;;;;;;7.69;41.47;100784.19;4989582;28;20498;-69
2022/03/14 01:09:02;;;;;;;10.35;7.22;;;;;;;7.69;41.66;100783.34;4991724;28;20041;-71
2022/03/14 01:11:28;;;;;;;9.50;6.60;;;;;;;7.68;41.35;100795.69;4993623;28;20042;-72
2022/03/14 01:13:53;;;;;;;11.55;6.82;;;;;;;7.69;41.42;100812.31;4992023;28;20038;-71
2022/03/14 01:16:19;;;;;;;9.68;6.65;;;;;;;7.67;41.40;100820.31;4990063;28;20137;-71
2022/03/14 01:18:44;;;;;;;9.05;5.90;;;;;;;7.64;41.44;100825.84;4989076;28;20100;-72
2022/03/14 01:21:09;;;;;;;9.77;6.30;;;;;;;7.62;41.70;100833.84;4992398;28;20034;-71
2022/03/14 01:23:35;;;;;;;9.85;6.55;;;;;;;7.63;41.74;100834.72;4990856;28;20042;-71
2022/03/14 01:26:00;;;;;;;14.40;9.73;;;;;;;7.65;42.57;100846.78;4988067;28;20045;-71
2022/03/14 01:28:25;;;;;;;14.23;9.70;;;;;;;7.66;42.65;100850.25;4991873;28;20089;-72
2022/03/14 01:30:51;;;;;;;16.35;10.60;;;;;;;7.69;43.11;100860.53;4998268;28;20031;-71
2022/03/14 01:33:16;;;;;;;13.27;9.40;;;;;;;7.72;43.09;100862.88;4991263;28;20026;-71
2022/03/14 01:35:41;;;;;;;16.15;10.48;;;;;;;7.75;43.15;100860.03;4996971;28;20402;-71
2022/03/14 01:38:07;;;;;;;13.07;8.77;;;;;;;7.79;42.68;100869.31;4990765;28;20046;-72
2022/03/14 01:40:33;;;;;;;14.15;9.02;;;;;;;7.79;43.56;100887.75;4991581;28;20438;-72
2022/03/14 01:42:58;;;;;;;14.07;9.10;;;;;;;7.75;43.36;100886.34;4993678;28;20050;-71
2022/03/14 01:45:24;;;;;;;9.73;7.25;;;;;;;7.76;43.04;100897.72;4994157;28;20035;-71
2022/03/14 01:47:50;;;;;;;9.73;6.53;;;;;;;7.76;42.88;100898.53;4997015;28;20042;-70
2022/03/14 01:50:16;;;;;;;9.27;6.18;;;;;;;7.76;42.90;100919.59;4991892;28;20336;-71
2022/03/14 01:52:45;;;;;;;8.95;6.05;;;;;;;7.78;43.10;100928.22;4991709;28;20068;-71
2022/03/14 01:55:11;;;;;;;9.73;6.38;;;;;;;7.80;43.19;100931.56;4988555;28;20186;-70
2022/03/14 01:57:37;;;;;;;10.75;7.82;;;;;;;7.82;43.36;100941.97;4988517;28;20039;-70
2022/03/14 02:00:05;;;;;;;10.02;7.07;;;;;;;7.87;43.06;100945.09;4987876;28;20030;-73
2022/03/14 02:02:30;;;;;;;13.50;8.80;;;;;;;7.94;43.35;100950.69;4989050;28;20038;-71
2022/03/14 02:04:55;;;;;;;15.38;10.65;;;;;;;8.02;43.66;100956.16;4989606;28;20061;-72
2022/03/14 02:07:21;;;;;;;13.13;9.70;;;;;;;8.04;44.00;100949.81;4991313;28;20046;-72
2022/03/14 02:09:46;;;;;;;12.85;8.23;;;;;;;8.11;43.64;100963.31;4990789;28;20091;-71
2022/03/14 02:12:12;;;;;;;13.07;9.15;;;;;;;8.18;43.99;100967.13;4991262;28;20093;-71
2022/03/14 02:14:40;;;;;;;12.95;9.32;;;;;;;8.25;44.14;100983.28;4991975;28;20442;-71
2022/03/14 02:17:08;;;;;;;15.48;10.93;;;;;;;8.29;46.47;100979.41;4993441;28;20524;-70
2022/03/14 02:19:34;;;;;;;13.77;9.45;;;;;;;8.21;46.41;100990.56;4992191;28;20096;-73
2022/03/14 02:21:59;;;;;;;11.77;8.55;;;;;;;8.01;46.43;100994.84;4991015;28;20141;-72
2022/03/14 02:24:28;;;;;;;15.35;11.15;;;;;;;7.79;48.33;101000.13;4990855;28;20114;-71
2022/03/14 02:26:54;;;;;;;18.73;11.35;;;;;;;7.65;48.56;101007.34;4990325;28;20038;-70
2022/03/14 02:29:19;;;;;;;16.48;11.45;;;;;;;7.53;49.50;101002.19;4990079;28;20034;-69
2022/03/14 02:31:46;;;;;;;17.33;11.38;;;;;;;7.43;50.46;101013.44;4992257;28;20598;-69
2022/03/14 02:34:12;;;;;;;18.70;12.55;;;;;;;7.36;51.41;101017.50;4989486;28;20097;-70
2022/03/14 02:36:39;;;;;;;18.92;13.10;;;;;;;7.31;53.50;101021.44;4989418;28;20470;-73
2022/03/14 02:39:06;;;;;;;17.38;11.45;;;;;;;7.33;53.68;101023.00;4992450;28;20395;-70
2022/03/14 02:41:32;;;;;;;13.13;9.85;;;;;;;7.36;54.03;101028.00;4991227;28;20049;-73
2022/03/14 02:43:57;;;;;;;14.43;9.55;;;;;;;7.42;55.61;101030.19;4988145;28;20121;-72
2022/03/14 02:46:23;;;;;;;10.00;7.35;;;;;;;7.53;58.40;101041.66;4993982;28;20117;-72
2022/03/14 02:48:48;;;;;;;7.43;5.40;;;;;;;7.63;61.27;101048.72;4991983;28;20701;-72
2022/03/14 02:51:13;;;;;;;4.80;3.60;;;;;;;7.79;64.25;101045.72;4990618;28;20042;-72
2022/03/14 02:53:39;;;;;;;3.70;2.63;;;;;;;7.89;65.22;101051.13;4990719;28;20030;-72
2022/03/14 02:56:05;;;;;;;3.90;2.00;;;;;;;7.97;66.57;101053.13;4989574;28;20109;-72
2022/03/14 02:58:33;;;;;;;2.72;1.50;;;;;;;8.03;66.38;101053.50;4986982;28;20062;-72
2022/03/14 03:00:59;;;;;;;1.67;1.20;;;;;;;8.13;65.21;101050.97;4991829;28;20395;-72
2022/03/14 03:03:27;;;;;;;1.92;1.30;;;;;;;8.18;66.49;101053.22;4990512;28;20041;-72
2022/03/14 03:05:53;;;;;;;1.65;1.00;;;;;;;8.22;66.49;101057.25;4990515;28;20420;-72
2022/03/14 03:08:21;;;;;;;1.90;1.20;;;;;;;8.25;67.53;101063.13;4990253;28;20046;-73
2022/03/14 03:10:47;;;;;;;2.95;1.20;;;;;;;8.26;67.53;101066.59;4988455;28;20073;-73
2022/03/14 03:13:13;;;;;;;1.38;0.95;;;;;;;8.28;66.84;101078.69;4991763;28;20053;-73
2022/03/14 03:15:38;;;;;;;1.42;1.10;;;;;;;8.37;66.90;101085.03;4988276;28;20039;-73
2022/03/14 03:18:04;;;;;;;2.00;1.20;;;;;;;8.38;67.16;101094.59;4990305;28;20050;-74
2022/03/14 03:20:30;;;;;;;2.13;1.30;;;;;;;8.39;67.93;101087.53;4989302;28;20042;-73
2022/03/14 03:22:55;;;;;;;1.92;1.25;;;;;;;8.37;68.94;101086.84;4988249;28;20041;-74
2022/03/14 03:25:20;;;;;;;2.60;1.50;;;;;;;8.39;68.66;101100.69;4989256;28;20038;-74
2022/03/14 03:27:46;;;;;;;4.05;2.00;;;;;;;8.37;70.31;101103.47;4990448;28;20065;-74
2022/03/14 03:30:12;;;;;;;3.85;2.03;;;;;;;8.30;70.75;101108.41;4988848;28;20034;-74
2022/03/14 03:32:37;;;;;;;3.60;2.28;;;;;;;8.29;71.08;101116.41;4989310;28;20050;-75
2022/03/14 03:35:03;;;;;;;3.60;2.13;;;;;;;8.25;72.47;101110.56;4987277;28;20031;-74
2022/03/14 03:37:29;;;;;;;2.03;1.55;;;;;;;8.24;72.99;101122.03;4987760;28;20131;-74
2022/03/14 03:39:54;;;;;;;1.90;1.40;;;;;;;8.22;73.53;101118.72;4990192;28;20561;-72
2022/03/14 03:42:19;;;;;;;3.88;1.65;;;;;;;8.18;74.42;101124.34;4988964;28;20054;-75
2022/03/14 03:44:44;;;;;;;2.00;1.45;;;;;;;8.16;74.94;101123.63;4992922;28;20395;-73
2022/03/14 03:47:10;;;;;;;2.55;1.80;;;;;;;8.15;73.94;101132.47;4989591;28;20117;-74
2022/03/14 03:49:38;;;;;;;3.17;2.00;;;;;;;8.14;73.81;101139.53;4991233;28;20030;-75
2022/03/14 03:52:03;;;;;;;3.60;2.53;;;;;;;8.14;74.46;101151.88;4988192;28;20069;-74
2022/03/14 03:54:29;;;;;;;3.10;2.28;;;;;;;8.13;74.35;101150.19;4995540;28;20616;-74
2022/03/14 03:56:54;;;;;;;4.25;2.80;;;;;;;8.08;75.64;101148.78;4988203;28;20035;-75
2022/03/14 03:59:21;;;;;;;3.75;2.47;;;;;;;8.09;76.37;101157.50;4988702;28;20030;-75
2022/03/14 04:01:46;;;;;;;3.78;2.33;;;;;;;8.08;76.80;101163.75;4989117;28;20034;-73
2022/03/14 04:04:12;;;;;;;2.90;2.28;;;;;;;8.06;76.89;101161.22;4988607;28;20038;-74
2022/03/14 04:06:41;;;;;;;4.15;2.00;;;;;;;8.06;76.62;101163.03;4989102;28;20126;-74
2022/03/14 04:09:07;;;;;;;3.55;2.10;;;;;;;8.07;76.50;101164.69;4987968;28;20065;-74
2022/03/14 04:11:33;;;;;;;3.50;2.00;;;;;;;8.07;76.78;101151.53;4988056;28;20494;-74
2022/03/14 04:13:59;;;;;;;3.78;2.10;;;;;;;8.05;76.64;101154.25;4988336;28;20454;-74
2022/03/14 04:16:27;;;;;;;3.95;1.90;;;;;;;8.04;76.97;101154.41;4991611;28;20043;-73
2022/03/14 04:18:53;;;;;;;3.65;2.00;;;;;;;8.02;77.82;101164.22;4990329;28;20088;-74
2022/03/14 04:21:19;;;;;;;3.05;2.05;;;;;;;8.01;78.42;101173.09;4988385;28;20031;-73
2022/03/14 04:23:45;;;;;;;3.22;2.15;;;;;;;7.99;78.72;101165.28;4990927;28;20411;-73
2022/03/14 04:26:11;;;;;;;3.40;2.20;;;;;;;7.98;80.06;101175.94;4988864;28;20113;-73
2022/03/14 04:28:39;;;;;;;2.75;1.90;;;;;;;7.98;79.77;101171.50;4993190;28;20039;-73
2022/03/14 04:31:06;;;;;;;3.47;1.80;;;;;;;7.99;79.73;101180.25;4992346;28;20038;-73
2022/03/14 04:33:32;;;;;;;2.60;1.70;;;;;;;7.99;81.06;101185.53;4993063;28;20045;-73
2022/03/14 04:35:57;;;;;;;3.05;1.88;;;;;;;7.97;81.27;101190.06;4992983;28;20053;-73
2022/03/14 04:38:24;;;;;;;4.80;1.95;;;;;;;7.93;82.35;101199.16;4990579;28;20035;-73
2022/03/14 04:40:50;;;;;;;4.97;2.15;;;;;;;7.93;82.27;101191.25;4997371;28;20042;-74
2022/03/14 04:43:15;;;;;;;3.63;1.77;;;;;;;7.93;82.34;101188.63;4996527;28;20034;-73
2022/03/14 04:45:41;;;;;;;2.83;1.52;;;;;;;7.90;83.67;101207.31;4994271;28;20030;-73
2022/03/14 04:48:07;;;;;;;2.42;1.60;;;;;;;7.88;83.96;101202.16;4993190;28;20042;-74
2022/03/14 04:50:34;;;;;;;2.25;1.48;;;;;;;7.90;83.48;101204.69;4993727;28;20045;-73
2022/03/14 04:53:00;;;;;;;1.92;1.40;;;;;;;7.89;83.28;101203.84;4995103;28;20149;-73
2022/03/14 04:55:25;;;;;;;2.90;1.70;;;;;;;7.87;83.98;101209.22;4993780;28;20443;-74
2022/03/14 04:57:51;;;;;;;2.55;1.90;;;;;;;7.84;84.04;101217.34;4987257;28;20049;-73
2022/03/14 05:00:17;;;;;;;2.58;1.60;;;;;;;7.84;84.49;101220.00;4999985;28;20268;-74
2022/03/14 05:02:42;;;;;;;4.28;1.80;;;;;;;7.79;85.48;101222.09;5026145;28;20053;-72
2022/03/14 05:05:11;;;;;;;2.00;1.60;;;;;;;7.80;85.08;101236.13;4995390;28;20035;-73
2022/03/14 05:07:36;;;;;;;3.33;1.75;;;;;;;7.81;84.87;101240.44;4992442;28;20093;-73
2022/03/14 05:10:02;;;;;;;3.58;1.70;;;;;;;7.79;84.91;101244.97;4992296;28;20034;-73
2022/03/14 05:12:31;;;;;;;2.20;1.40;;;;;;;7.78;84.90;101251.22;4987401;28;20523;-73
2022/03/14 05:14:57;;;;;;;2.17;1.48;;;;;;;7.76;85.20;101253.94;4993162;28;20058;-73
2022/03/14 05:17:22;;;;;;;2.95;1.80;;;;;;;7.73;84.98;101251.53;4993690;28;20418;-73
2022/03/14 05:19:47;;;;;;;1.77;1.13;;;;;;;7.73;84.83;101255.97;4991017;28;20320;-73
2022/03/14 05:22:13;;;;;;;3.05;1.40;;;;;;;7.72;84.47;101260.38;4993500;28;20411;-73
2022/03/14 05:24:38;;;;;;;2.10;1.30;;;;;;;7.72;84.64;101267.44;4994131;28;20034;-73
2022/03/14 05:27:03;;;;;;;1.65;1.25;;;;;;;7.71;84.58;101271.88;4991908;28;20045;-74
2022/03/14 05:29:29;;;;;;;2.05;1.50;;;;;;;7.68;85.06;101264.22;4993675;28;20038;-73
2022/03/14 05:31:54;;;;;;;2.50;1.40;;;;;;;7.66;84.89;101281.91;4991842;28;20038;-74
2022/03/14 05:34:19;;;;;;;2.90;1.48;;;;;;;7.61;85.21;101276.16;4993257;28;20030;-73
2022/03/14 05:36:45;;;;;;;2.38;1.45;;;;;;;7.59;85.29;101280.69;4990819;28;20046;-74
2022/03/14 05:39:10;;;;;;;3.47;1.50;;;;;;;7.59;85.20;101294.69;4993104;28;20449;-74
2022/03/14 05:41:35;;;;;;;2.25;1.40;;;;;;;7.58;85.09;101287.75;4991804;28;20402;-74
2022/03/14 05:44:01;;;;;;;2.33;1.50;;;;;;;7.58;85.21;101298.28;4991939;28;20034;-74
2022/03/14 05:46:26;;;;;;;1.88;1.30;;;;;;;7.60;84.92;101306.91;4991763;28;20425;-74
2022/03/14 05:48:51;;;;;;;2.28;1.30;;;;;;;7.63;84.29;101308.47;5025241;23;20070;-73
2022/03/14 05:51:17;;;;;;;2.53;1.40;;;;;;;7.63;84.30;101321.63;5021052;28;20451;-72
2022/03/14 05:53:42;;;;;;;2.00;1.30;;;;;;;7.63;84.29;101325.09;5012388;28;20033;-74
2022/03/14 05:56:07;;;;;;;2.20;1.38;;;;;;;7.65;84.32;101331.09;5016990;28;20056;-74
2022/03/14 05:58:33;;;;;;;3.60;1.25;;;;;;;7.64;84.60;101328.56;5007751;28;20036;-72
2022/03/14 06:00:58;;;;;;;2.50;1.50;;;;;;;7.63;84.61;101335.63;5009974;28;20401;-72
2022/03/14 06:03:24;;;;;;;3.15;1.42;;;;;;;7.62;84.54;101339.19;5008238;28;20076;-73
2022/03/14 06:05:49;;;;;;;3.10;1.30;;;;;;;7.61;85.12;101339.34;5010709;28;20403;-72
2022/03/14 06:08:16;;;;;;;2.38;1.30;;;;;;;7.61;84.93;101334.06;5010173;28;20096;-73
2022/03/14 06:10:45;;;;;;;3.55;1.40;;;;;;;7.60;84.84;101340.25;5010870;28;20295;-73
2022/03/14 06:13:10;;;;;;;3.03;1.20;;;;;;;7.57;85.89;101353.66;5009852;28;20052;-73
2022/03/14 06:15:36;;;;;;;2.50;1.35;;;;;;;7.58;85.63;101358.81;5010079;28;20038;-72
2022/03/14 06:18:01;;;;;;;1.85;1.38;;;;;;;7.56;85.74;101373.06;5008429;28;20030;-72
2022/03/14 06:20:26;;;;;;;2.55;1.42;;;;;;;7.55;86.00;101377.44;5009924;28;20045;-73
2022/03/14 06:22:51;;;;;;;2.30;1.37;;;;;;;7.53;86.23;101379.38;5005577;28;20084;-73
2022/03/14 06:25:20;;;;;;;3.35;1.70;;;;;;;7.54;86.13;101380.22;5005039;28;20285;-73
2022/03/14 06:27:45;;;;;;;3.60;2.13;;;;;;;7.54;86.25;101382.84;5009480;28;20109;-74
2022/03/14 06:30:11;;;;;;;4.18;2.42;;;;;;;7.52;86.00;101380.31;5009262;28;20590;-72
2022/03/14 06:32:39;;;;;;;4.88;2.60;;;;;;;7.53;86.61;101396.94;5007713;28;20541;-74
2022/03/14 06:35:06;;;;;;;4.53;2.72;;;;;;;7.52;86.50;101397.91;5008849;28;20118;-72
2022/03/14 06:37:31;;;;;;;5.03;2.08;;;;;;;7.52;86.46;101405.78;5010412;28;20100;-73
2022/03/14 06:39:57;;;;;;;2.78;1.65;;;;;;;7.54;86.37;101415.25;5010093;28;20526;-72
2022/03/14 06:42:23;;;;;;;3.65;1.65;;;;;;;7.54;86.35;101419.69;5009224;28;20092;-73
2022/03/14 06:44:50;;;;;;;2.53;1.70;;;;;;;7.55;86.16;101429.25;5009853;28;20041;-74
2022/03/14 06:47:17;;;;;;;3.45;1.50;;;;;;;7.55;86.27;101431.88;5006338;28;20136;-73
2022/03/14 06:49:44;;;;;;;5.10;1.73;;;;;;;7.55;86.33;101437.16;5005089;28;20454;-73
2022/03/14 06:52:10;;;;;;;2.40;1.42;;;;;;;7.56;86.13;101442.31;5008641;28;20125;-73
2022/03/14 06:54:36;;;;;;;7.13;1.98;;;;;;;7.56;86.36;101441.47;5009778;28;20472;-73
2022/03/14 06:57:02;;;;;;;2.83;1.80;;;;;;;7.56;86.43;101441.47;5005245;28;20121;-74
2022/03/14 06:59:28;;;;;;;3.28;2.00;;;;;;;7.58;86.31;101450.09;5007287;28;20522;-72
2022/03/14 07:01:53;;;;;;;2.72;1.80;;;;;;;7.57;86.60;101451.03;5004220;28;20029;-73
2022/03/14 07:04:18;;;;;;;4.50;2.13;;;;;;;7.59;86.05;101449.16;5004650;28;20050;-73
2022/03/14 07:06:44;;;;;;;3.53;2.00;;;;;;;7.63;85.75;101450.63;5007593;28;20049;-73
2022/03/14 07:09:09;;;;;;;3.78;2.00;;;;;;;7.68;85.68;101456.38;5007598;28;20355;-73
2022/03/14 07:11:35;;;;;;;4.28;2.20;;;;;;;7.73;85.48;101458.69;5008488;28;20037;-73
2022/03/14 07:14:01;;;;;;;4.22;2.33;;;;;;;7.76;85.48;101461.09;5009247;28;20052;-73
2022/03/14 07:16:26;;;;;;;4.30;2.65;;;;;;;7.79;85.30;101469.59;5005730;28;20038;-73
2022/03/14 07:18:51;;;;;;;6.05;2.50;;;;;;;7.74;85.71;101455.94;5007527;28;20558;-73
2022/03/14 07:21:17;;;;;;;7.43;3.00;;;;;;;7.73;85.77;101464.78;5004129;28;20052;-74
2022/03/14 07:23:43;;;;;;;5.25;2.35;;;;;;;7.81;85.61;101472.13;5006404;28;20080;-72
2022/03/14 07:26:08;;;;;;;4.07;2.40;;;;;;;7.88;85.20;101474.19;5002038;28;20601;-73
2022/03/14 07:28:34;;;;;;;4.05;2.40;;;;;;;8.00;85.02;101477.75;5009561;28;20096;-73
2022/03/14 07:30:59;;;;;;;5.43;2.45;;;;;;;8.06;84.86;101479.09;5009897;28;20034;-73
2022/03/14 07:33:25;;;;;;;4.15;2.22;;;;;;;8.14;84.49;101484.66;5010188;28;20034;-73
2022/03/14 07:35:51;;;;;;;6.72;2.78;;;;;;;8.24;84.09;101488.28;5005140;28;20129;-73
2022/03/14 07:38:16;;;;;;;7.15;3.40;;;;;;;8.23;84.15;101499.78;5005870;28;20113;-73
2022/03/14 07:40:42;;;;;;;5.75;3.30;;;;;;;8.19;84.54;101500.94;5010380;28;20053;-72
2022/03/14 07:43:08;;;;;;;5.93;3.10;;;;;;;8.23;84.72;101494.50;5001641;28;20448;-72
2022/03/14 07:45:34;;;;;;;5.30;3.17;;;;;;;8.38;83.94;101496.97;5004135;28;20123;-74
2022/03/14 07:47:59;;;;;;;5.50;2.85;;;;;;;8.51;83.65;101508.31;5002983;28;20034;-73
2022/03/14 07:50:27;;;;;;;7.20;3.63;;;;;;;8.56;83.55;101513.25;5009310;28;20516;-74
2022/03/14 07:52:54;;;;;;;6.93;3.40;;;;;;;8.58;83.52;101514.81;5011506;28;20045;-73
2022/03/14 07:55:20;;;;;;;6.28;3.30;;;;;;;8.57;83.42;101520.19;5012690;28;20042;-75
2022/03/14 07:57:46;;;;;;;6.80;3.05;;;;;;;8.59;83.26;101521.75;5007106;28;20032;-74
2022/03/14 08:00:18;;;;;;;6.75;3.38;;;;;;;8.78;82.82;101528.31;5008868;28;20490;-74
2022/03/14 08:02:44;;;;;;;6.13;2.72;;;;;;;9.03;81.89;101533.38;5010928;28;20034;-75
2022/03/14 08:05:14;;;;;;;5.82;2.60;;;;;;;9.31;80.95;101537.38;5008933;28;20041;-74
2022/03/14 08:07:44;;;;;;;4.95;2.30;;;;;;;9.59;80.38;101537.88;5009969;28;20406;-74
2022/03/14 08:10:10;;;;;;;4.63;2.45;;;;;;;9.79;79.21;101538.94;5007267;28;20042;-74
2022/03/14 08:12:50;;;;;;;5.38;2.35;;;;;;;10.02;78.34;101545.03;5012630;28;20037;-75
2022/03/14 08:15:22;;;;;;;4.13;2.20;;;;;;;10.39;77.65;101548.22;5006751;28;20081;-74
2022/03/14 08:17:49;;;;;;;8.18;2.30;;;;;;;10.66;76.67;101556.66;5006773;28;20042;-75
2022/03/14 08:20:15;;;;;;;5.82;2.70;;;;;;;10.90;75.54;101553.78;5013755;28;20121;-74
2022/03/14 08:22:41;;;;;;;6.55;2.58;;;;;;;11.04;76.03;101556.94;5013152;28;20462;-73
2022/03/14 08:25:07;;;;;;;5.32;2.28;;;;;;;11.23;74.55;101558.88;5007959;28;20042;-74
2022/03/14 08:27:32;;;;;;;7.20;2.95;;;;;;;11.34;73.85;101563.22;5005764;28;20152;-73
2022/03/14 08:29:58;;;;;;;7.03;2.60;;;;;;;11.37;73.37;101575.38;5011033;28;20128;-74
2022/03/14 08:32:24;;;;;;;5.05;2.75;;;;;;;11.34;72.06;101573.81;5005620;28;20042;-73
2022/03/14 08:34:52;;;;;;;5.72;2.20;;;;;;;11.37;71.89;101570.06;5013803;28;20612;-73
2022/03/14 08:37:19;;;;;;;5.25;2.50;;;;;;;11.51;71.90;101576.84;5008031;28;20041;-73
2022/03/14 08:39:46;;;;;;;4.80;2.40;;;;;;;11.54;71.60;101576.59;5006614;28;20038;-73
2022/03/14 08:42:11;;;;;;;5.10;2.22;;;;;;;11.39;70.29;101574.28;5007445;28;20532;-74
2022/03/14 08:44:37;;;;;;;4.35;2.00;;;;;;;11.21;71.13;101591.72;5009287;28;20136;-74
2022/03/14 08:47:03;;;;;;;6.10;2.30;;;;;;;11.12;70.18;101588.03;5009053;28;20525;-73
2022/03/14 08:49:28;;;;;;;4.47;1.85;;;;;;;11.05;70.33;101586.88;5007795;28;20038;-73
2022/03/14 08:51:53;;;;;;;9.95;2.40;;;;;;;10.88;69.54;101595.41;5008986;28;20048;-74
2022/03/14 08:54:19;;;;;;;6.88;2.20;;;;;;;10.83;69.34;101599.25;5010478;28;20087;-73
2022/03/14 08:56:44;;;;;;;6.03;2.00;;;;;;;10.81;69.40;101597.72;5005599;28;20025;-74
2022/03/14 08:59:12;;;;;;;7.80;2.20;;;;;;;10.74;69.42;101602.66;5008422;28;20037;-73
2022/03/14 09:01:38;;;;;;;7.13;2.00;;;;;;;10.67;69.39;101605.94;5011908;28;20049;-73
2022/03/14 09:04:04;;;;;;;8.00;2.70;;;;;;;10.65;69.83;101606.06;5003096;28;20080;-74
2022/03/14 09:06:29;;;;;;;2.97;1.40;;;;;;;10.79;69.51;101610.22;5009299;28;20034;-73
2022/03/14 09:08:55;;;;;;;4.18;1.70;;;;;;;10.96;68.74;101604.38;5002272;28;20414;-73
2022/03/14 09:11:20;;;;;;;3.88;1.60;;;;;;;10.98;68.95;101620.13;5006864;28;20046;-73
2022/03/14 09:13:46;;;;;;;5.03;1.73;;;;;;;11.11;68.81;101625.22;5010630;28;20534;-74
2022/03/14 09:16:11;;;;;;;7.28;2.22;;;;;;;11.37;67.69;101613.31;5013893;28;20084;-73
2022/03/14 09:18:37;;;;;;;3.97;1.50;;;;;;;11.63;67.17;101619.03;5013468;28;20522;-74
2022/03/14 09:21:02;;;;;;;3.60;1.55;;;;;;;11.68;66.97;101616.81;5010657;28;20100;-74
2022/03/14 09:23:28;;;;;;;7.13;1.90;;;;;;;11.68;66.38;101624.75;5009076;28;20101;-73
2022/03/14 09:25:56;;;;;;;6.72;1.52;;;;;;;11.67;66.29;101625.72;5012444;28;20072;-73
2022/03/14 09:28:21;;;;;;;5.25;1.73;;;;;;;11.65;66.22;101625.00;5014183;28;20553;-73
2022/03/14 09:30:47;;;;;;;4.53;1.60;;;;;;;11.67;65.79;101628.38;5009205;28;20049;-73
2022/03/14 09:33:12;;;;;;;6.85;2.05;;;;;;;11.71;65.34;101617.53;5012643;28;20045;-74
2022/03/14 09:35:37;;;;;;;3.28;1.50;;;;;;;12.05;65.41;101616.28;5013290;28;20256;-73
2022/03/14 09:38:03;;;;;;;4.03;1.38;;;;;;;12.52;64.72;101615.69;5013724;28;20048;-72
2022/03/14 09:40:30;;;;;;;2.38;1.13;;;;;;;13.14;63.30;101622.41;5005751;28;20301;-73
2022/03/14 09:42:56;;;;;;;4.95;1.35;;;;;;;13.34;61.85;101619.75;5010441;28;20038;-73
2022/03/14 09:45:22;;;;;;;2.33;1.38;;;;;;;13.14;61.76;101626.88;5010915;28;20072;-73
2022/03/14 09:47:50;;;;;;;4.40;1.40;;;;;;;12.91;62.14;101637.78;5010561;28;20498;-73
2022/03/14 09:50:34;;;;;;;4.43;1.55;;;;;;;12.72;61.75;101643.09;5011774;28;20116;-73
2022/03/14 09:53:04;;;;;;;3.03;1.20;;;;;;;12.58;61.70;101646.97;5008059;28;20037;-73
2022/03/14 09:55:30;;;;;;;3.95;1.40;;;;;;;12.35;62.75;101635.78;5008989;28;20480;-73
2022/03/14 09:57:55;;;;;;;2.95;1.20;;;;;;;12.56;62.22;101648.94;5013324;28;20034;-74
2022/03/14 10:00:21;;;;;;;5.18;1.60;;;;;;;12.88;61.13;101650.50;5010729;28;20107;-73
2022/03/14 10:02:46;;;;;;;3.50;1.40;;;;;;;13.31;60.07;101647.44;5010041;28;20039;-73
2022/03/14 10:05:14;;;;;;;4.07;1.40;;;;;;;13.57;59.44;101646.81;5012273;28;20092;-72
2022/03/14 10:07:43;;;;;;;3.70;1.35;;;;;;;13.93;57.39;101649.66;5008056;28;20034;-73
2022/03/14 10:10:09;;;;;;;3.53;1.15;;;;;;;13.83;56.48;101652.34;5009560;28;20467;-73
2022/03/14 10:12:34;;;;;;;4.90;1.30;;;;;;;13.70;56.81;101654.47;5008604;28;20136;-73
2022/03/14 10:15:01;;;;;;;5.32;1.80;;;;;;;13.48;56.84;101663.63;5011438;28;20398;-72
2022/03/14 10:17:29;;;;;;;3.25;1.70;;;;;;;13.08;57.67;101657.47;5010982;28;20045;-73
2022/03/14 10:19:57;;;;;;;4.22;1.85;;;;;;;12.81;57.95;101657.34;5009985;28;20034;-73
2022/03/14 10:22:23;;;;;;;8.05;3.05;;;;;;;12.51;57.86;101669.72;5009141;28;20510;-73
2022/03/14 10:24:55;;;;;;;6.30;2.20;;;;;;;12.22;58.63;101675.78;5006950;28;20046;-73
2022/03/14 10:27:21;;;;;;;4.95;1.88;;;;;;;11.89;58.86;101679.53;5010774;28;20121;-73
2022/03/14 10:29:47;;;;;;;6.00;1.60;;;;;;;11.78;59.04;101690.22;5011332;28;20037;-73
2022/03/14 10:32:48;;;;;;;4.10;1.83;;;;;;;11.77;58.94;101680.56;5007369;28;20046;-74
2022/03/14 10:35:07;;;;;;;3.22;1.50;;;;;;;12.01;59.24;101678.50;5006409;28;20034;-73
2022/03/14 10:37:35;;;;;;;3.58;1.52;;;;;;;12.59;58.88;101663.75;5004586;28;20030;-74
2022/03/14 10:40:08;;;;;;;3.70;1.67;;;;;;;13.88;57.14;101675.84;5007407;28;20038;-72
2022/03/14 10:42:42;;;;;;;4.40;1.58;;;;;;;14.60;55.57;101674.25;5006438;28;20049;-73
2022/03/14 10:45:12;;;;;;;2.10;1.20;;;;;;;14.96;55.16;101679.59;5006349;28;20538;-73
2022/03/14 10:47:46;;;;;;;1.80;1.10;;;;;;;14.77;55.40;101681.41;5005702;28;20037;-73
2022/03/14 10:50:36;;;;;;;3.85;1.30;;;;;;;14.07;55.11;101678.44;5011457;28;20048;-74
2022/03/14 10:53:08;;;;;;;4.15;1.25;;;;;;;13.49;55.15;101683.91;5005621;28;20192;-72
2022/03/14 10:55:35;;;;;;;2.55;1.20;;;;;;;12.97;55.18;101678.88;5006326;28;20466;-72
2022/03/14 10:58:09;;;;;;;2.15;0.90;;;;;;;12.50;55.92;101690.13;4999838;28;20034;-72
2022/03/14 11:00:44;;;;;;;2.45;0.90;;;;;;;12.16;57.25;101700.19;5009701;28;20042;-74
2022/03/14 11:03:10;;;;;;;1.83;0.90;;;;;;;11.97;58.31;101706.25;5003617;28;20041;-72
2022/03/14 11:05:44;;;;;;;2.05;0.93;;;;;;;11.99;58.13;101698.16;5006551;28;20037;-72
2022/03/14 11:08:37;;;;;;;3.47;1.00;;;;;;;12.15;58.19;101697.66;5004644;28;20038;-73
2022/03/14 11:11:10;;;;;;;3.33;1.13;;;;;;;12.41;57.42;101695.41;5006639;28;20048;-72
2022/03/14 11:13:43;;;;;;;4.35;1.10;;;;;;;12.64;56.62;101691.53;5007120;28;20038;-72
2022/03/14 11:16:24;;;;;;;2.40;0.90;;;;;;;12.86;56.23;101686.97;5008780;28;20049;-72
2022/03/14 11:18:51;;;;;;;2.72;0.98;;;;;;;13.03;56.13;101698.72;5009747;28;20395;-73
2022/03/14 11:21:19;;;;;;;2.38;1.15;;;;;;;13.01;56.08;101695.34;5008394;28;20139;-72
2022/03/14 11:23:46;;;;;;;3.42;0.90;;;;;;;12.89;56.16;101698.13;5006316;28;20038;-72
2022/03/14 11:26:13;;;;;;;2.47;0.80;;;;;;;12.66;56.50;101702.03;5009622;28;20033;-73